Time;durP1;ratioP1;P1;durP2;ratioP2;P2;SDS_P1;SDS_P2;PMS_P1;PMS_P2;Temp;Humidity;BMP_temperature;BMP_pressure;BME280_temperature;BME280_humidity;BME280_pressure;Samples;Min_cycle;Max_cycle;Signal;HPM_P1;HPM_P2
2022/02/02 00:00:01;;;;;;;;;;;;;;;;;;6305156;28;20044;-62
2022/02/02 00:03:08;;;;;;;4.10;1.52;;;;;;;;;;6307790;28;20034;-62
2022/02/02 00:06:15;;;;;;;3.63;1.65;;;;;;;;;;6305989;28;20114;-62
2022/02/02 00:09:18;;;;;;;4.07;1.70;;;;;;;;;;6306988;28;20071;-64
2022/02/02 00:12:24;;;;;;;7.95;2.00;;;;;;;;;;6301355;28;20048;-62
2022/02/02 00:15:39;;;;;;;4.47;1.75;;;;;;;;;;6311837;28;20052;-62
2022/02/02 00:18:51;;;;;;;4.78;1.77;;;;;;;;;;6313092;28;20503;-65
2022/02/02 00:21:57;;;;;;;5.60;1.85;;;;;;;;;;6306762;28;20449;-65
2022/02/02 00:25:07;;;;;;;5.95;1.85;;;;;;;;;;6310864;28;20124;-62
2022/02/02 00:28:09;;;;;;;4.30;1.67;;;;;;;;;;6307049;28;20278;-62
2022/02/02 00:31:18;;;;;;;6.30;2.30;;;;;;;;;;6309839;28;20114;-62
2022/02/02 00:34:24;;;;;;;3.90;1.77;;;;;;;;;;6304326;28;20060;-62
2022/02/02 00:37:25;;;;;;;3.25;1.58;;;;;;;;;;6305733;28;20078;-64
2022/02/02 00:40:27;;;;;;;8.77;1.90;;;;;;;;;;6311562;28;20574;-63
2022/02/02 00:43:29;;;;;;;5.00;1.67;;;;;;;;;;6312230;28;20295;-62
2022/02/02 00:46:32;;;;;;;4.00;1.70;;;;;;;;;;6310085;28;20441;-64
2022/02/02 00:49:34;;;;;;;3.50;1.90;;;;;;;;;;6308854;28;20325;-62
2022/02/02 00:52:35;;;;;;;3.03;1.30;;;;;;;;;;6301793;28;20055;-62
2022/02/02 00:55:37;;;;;;;2.53;1.27;;;;;;;;;;6304346;28;20060;-63
2022/02/02 00:58:39;;;;;;;3.28;1.60;;;;;;;;;;6304337;28;20070;-62
2022/02/02 01:01:42;;;;;;;4.13;1.73;;;;;;;;;;6303558;28;20514;-62
2022/02/02 01:04:43;;;;;;;3.67;1.30;;;;;;;;;;6305208;28;20127;-62
2022/02/02 01:08:10;;;;;;;2.05;1.23;;;;;;;;;;6304435;28;20131;-62
2022/02/02 01:11:34;;;;;;;4.80;1.00;;;;;;;;;;6304555;28;20060;-62
2022/02/02 01:21:29;;;;;;;1.65;1.10;;;;;;;;;;6303433;28;20069;-63
2022/02/02 01:27:51;;;;;;;4.78;1.33;;;;;;;;;;6306216;28;20048;-62
2022/02/02 01:30:54;;;;;;;1.90;1.10;;;;;;;;;;6307981;28;20090;-62
2022/02/02 01:33:57;;;;;;;4.03;1.58;;;;;;;;;;6309596;28;20052;-62
2022/02/02 01:36:58;;;;;;;8.57;1.90;;;;;;;;;;6313398;28;20130;-63
2022/02/02 01:40:06;;;;;;;2.85;1.27;;;;;;;;;;6312654;28;20082;-62
2022/02/02 01:43:12;;;;;;;3.33;1.70;;;;;;;;;;6302553;28;20045;-62
2022/02/02 01:46:17;;;;;;;4.70;2.25;;;;;;;;;;6305747;28;20082;-62
2022/02/02 01:53:00;;;;;;;3.83;2.15;;;;;;;;;;6307132;28;20076;-63
2022/02/02 01:56:02;;;;;;;8.57;2.47;;;;;;;;;;6306315;28;20175;-63
2022/02/02 01:59:15;;;;;;;7.03;1.92;;;;;;;;;;6308188;28;20048;-64
2022/02/02 02:02:17;;;;;;;4.47;1.80;;;;;;;;;;6311564;28;20548;-62
2022/02/02 02:05:20;;;;;;;3.03;1.70;;;;;;;;;;6306025;28;20396;-64
2022/02/02 02:08:21;;;;;;;3.08;1.50;;;;;;;;;;6301949;28;20137;-62
2022/02/02 02:11:23;;;;;;;3.17;1.55;;;;;;;;;;6303914;28;20068;-64
2022/02/02 02:14:40;;;;;;;2.53;1.50;;;;;;;;;;6303266;28;20408;-62
2022/02/02 02:17:42;;;;;;;1.98;1.30;;;;;;;;;;6303897;28;20049;-62
2022/02/02 02:20:45;;;;;;;2.50;1.60;;;;;;;;;;6307531;28;20198;-61
2022/02/02 02:23:49;;;;;;;3.28;1.52;;;;;;;;;;6308117;28;20221;-62
2022/02/02 02:26:50;;;;;;;;;;;;;;;;;;6308780;28;20502;-62
2022/02/02 02:30:05;;;;;;;3.15;2.05;;;;;;;;;;6312660;28;19931;-64
2022/02/02 02:33:33;;;;;;;4.28;2.45;;;;;;;;;;6301397;28;20043;-63
2022/02/02 02:36:54;;;;;;;4.13;2.60;;;;;;;;;;6322091;28;20148;-62
2022/02/02 02:40:13;;;;;;;4.47;3.38;;;;;;;;;;6325331;28;20052;-62
2022/02/02 02:56:33;;;;;;;5.93;3.50;;;;;;;;;;6311499;28;20057;-62
2022/02/02 02:59:41;;;;;;;6.22;4.10;;;;;;;;;;6301438;28;20487;-62
2022/02/02 03:34:28;;;;;;;8.23;4.13;;;;;;;;;;6303623;28;20048;-62
2022/02/02 03:49:55;;;;;;;5.65;4.45;;;;;;;;;;6312148;28;20058;-62
2022/02/02 03:59:39;;;;;;;5.97;4.28;;;;;;;;;;6308276;28;20101;-62
2022/02/02 04:03:03;;;;;;;8.05;4.45;;;;;;;;;;6307505;28;20050;-62
2022/02/02 04:06:07;;;;;;;7.88;4.38;;;;;;;;;;6309069;28;20511;-62
2022/02/02 04:09:09;;;;;;;9.07;4.22;;;;;;;;;;6309082;28;20518;-62
2022/02/02 04:12:19;;;;;;;9.38;4.47;;;;;;;;;;6307316;28;20084;-62
2022/02/02 04:39:00;;;;;;;6.28;3.67;;;;;;;;;;6302766;28;20135;-62
2022/02/02 04:52:13;;;;;;;6.47;4.15;;;;;;;;;;6306551;28;20048;-63
2022/02/02 04:55:25;;;;;;;9.68;4.80;;;;;;;;;;6300549;28;20048;-62
2022/02/02 04:58:38;;;;;;;7.82;4.60;;;;;;;;;;6307731;28;20048;-62
2022/02/02 05:05:28;;;;;;;10.85;4.82;;;;;;;;;;6301877;28;20036;-62
2022/02/02 05:08:37;;;;;;;9.00;4.75;;;;;;;;;;6303402;28;20616;-63
2022/02/02 05:12:08;;;;;;;11.10;4.25;;;;;;;;;;6306204;28;20052;-62
2022/02/02 05:15:45;;;;;;;4.82;3.78;;;;;;;;;;6306414;28;20393;-62
2022/02/02 05:49:15;;;;;;;9.50;4.15;;;;;;;;;;6215378;28;20055;-63
2022/02/02 05:52:17;;;;;;;9.85;4.20;;;;;;;;;;6196904;28;20077;-62
2022/02/02 05:55:18;;;;;;;13.85;4.57;;;;;;;;;;6217122;28;20137;-63
2022/02/02 05:58:26;;;;;;;8.88;4.70;;;;;;;;;;6218127;28;20125;-63
2022/02/02 06:01:29;;;;;;;9.05;4.57;;;;;;;;;;6207939;28;20051;-63
2022/02/02 06:04:31;;;;;;;8.95;5.13;;;;;;;;;;6213572;28;20554;-64
2022/02/02 06:07:34;;;;;;;6.93;4.00;;;;;;;;;;6210802;28;20042;-61
2022/02/02 06:10:36;;;;;;;7.05;3.88;;;;;;;;;;6215379;28;20042;-63
2022/02/02 06:13:42;;;;;;;7.15;3.63;;;;;;;;;;6217850;28;20050;-63
2022/02/02 06:16:46;;;;;;;6.53;3.45;;;;;;;;;;6218231;28;20050;-62
2022/02/02 06:19:48;;;;;;;11.52;4.18;;;;;;;;;;6218185;28;20050;-60
2022/02/02 06:22:53;;;;;;;9.55;3.72;;;;;;;;;;6217235;28;20046;-64
2022/02/02 06:25:57;;;;;;;5.53;3.40;;;;;;;;;;6217476;28;20049;-60
2022/02/02 06:29:03;;;;;;;9.50;3.90;;;;;;;;;;6221924;28;20388;-60
2022/02/02 06:32:08;;;;;;;14.77;3.97;;;;;;;;;;6216494;28;20665;-61
2022/02/02 06:35:10;;;;;;;9.27;4.93;;;;;;;;;;6220764;28;20429;-61
2022/02/02 06:38:12;;;;;;;6.93;3.95;;;;;;;;;;6210715;28;20056;-63
2022/02/02 06:41:13;;;;;;;11.07;4.45;;;;;;;;;;6199665;28;20050;-61
2022/02/02 06:44:15;;;;;;;12.32;4.25;;;;;;;;;;6202651;28;20422;-62
2022/02/02 06:47:19;;;;;;;10.38;4.97;;;;;;;;;;6200019;28;20042;-61
2022/02/02 06:50:25;;;;;;;13.00;5.53;;;;;;;;;;6201668;28;20039;-62
2022/02/02 06:53:33;;;;;;;13.85;6.10;;;;;;;;;;6198997;28;20451;-62
2022/02/02 06:56:45;;;;;;;7.65;5.00;;;;;;;;;;6202136;28;20129;-62
2022/02/02 07:00:00;;;;;;;10.68;5.10;;;;;;;;;;6199526;28;20054;-61
2022/02/02 07:03:19;;;;;;;13.43;5.90;;;;;;;;;;6197681;28;20245;-61
2022/02/02 07:06:36;;;;;;;13.43;6.00;;;;;;;;;;6197335;28;20137;-62
2022/02/02 07:09:57;;;;;;;16.05;5.63;;;;;;;;;;6196204;28;20054;-62
2022/02/02 07:13:15;;;;;;;10.32;5.32;;;;;;;;;;6195141;28;20051;-62
2022/02/02 07:16:30;;;;;;;13.05;6.15;;;;;;;;;;6198978;28;20056;-63
2022/02/02 07:19:48;;;;;;;11.85;6.22;;;;;;;;;;6222701;28;20235;-62
2022/02/02 07:26:42;;;;;;;12.65;6.30;;;;;;;;;;6196610;28;20125;-64
2022/02/02 07:29:53;;;;;;;10.75;6.30;;;;;;;;;;6221283;28;20045;-63
2022/02/02 07:33:05;;;;;;;14.52;5.93;;;;;;;;;;6218554;28;20424;-63
2022/02/02 07:36:14;;;;;;;20.55;6.60;;;;;;;;;;6220980;28;20441;-62
2022/02/02 07:39:16;;;;;;;14.07;6.18;;;;;;;;;;6220165;28;20046;-62
2022/02/02 07:42:20;;;;;;;13.63;6.93;;;;;;;;;;6217026;28;20469;-62
2022/02/02 07:45:23;;;;;;;14.90;6.40;;;;;;;;;;6217389;28;20462;-61
2022/02/02 07:48:25;;;;;;;13.32;6.38;;;;;;;;;;6214214;28;20062;-62
2022/02/02 07:51:30;;;;;;;14.90;6.45;;;;;;;;;;6219854;28;20133;-62
2022/02/02 07:54:36;;;;;;;15.32;6.43;;;;;;;;;;6217841;28;20425;-63
2022/02/02 07:57:39;;;;;;;12.70;6.10;;;;;;;;;;6216779;28;20049;-62
2022/02/02 08:00:42;;;;;;;11.73;6.40;;;;;;;;;;6215509;28;20494;-62
2022/02/02 08:03:53;;;;;;;15.48;6.30;;;;;;;;;;6215027;28;20127;-62
2022/02/02 08:06:56;;;;;;;14.07;7.13;;;;;;;;;;6215421;28;20096;-65
2022/02/02 08:10:07;;;;;;;11.43;6.35;;;;;;;;;;6215233;28;20439;-64
2022/02/02 08:13:14;;;;;;;13.05;7.03;;;;;;;;;;6211318;28;20057;-63
2022/02/02 08:16:17;;;;;;;15.63;6.35;;;;;;;;;;6213356;28;20050;-63
2022/02/02 08:19:21;;;;;;;13.85;7.30;;;;;;;;;;6213235;28;20137;-63
2022/02/02 08:22:28;;;;;;;;;;;;;;;;;;6217856;28;20058;-63
2022/02/02 08:25:31;;;;;;;12.77;6.70;;;;;;;;;;6224556;28;19925;-64
2022/02/02 08:28:33;;;;;;;18.42;7.65;;;;;;;;;;6216882;28;20041;-64
2022/02/02 08:31:36;;;;;;;11.35;6.65;;;;;;;;;;6216052;28;20137;-63
2022/02/02 08:34:44;;;;;;;12.18;7.05;;;;;;;;;;6214088;28;20139;-63
2022/02/02 08:37:51;;;;;;;13.90;6.80;;;;;;;;;;6210969;28;20522;-63
2022/02/02 08:40:57;;;;;;;16.20;6.63;;;;;;;;;;6216261;28;20053;-64
2022/02/02 08:44:02;;;;;;;15.52;7.10;;;;;;;;;;6215880;28;20148;-64
2022/02/02 08:47:07;;;;;;;19.23;6.60;;;;;;;;;;6213903;28;20047;-63
2022/02/02 08:50:09;;;;;;;11.40;4.35;;;;;;;;;;6215126;28;20352;-64
2022/02/02 08:53:30;;;;;;;10.35;4.43;;;;;;;;;;6224888;28;20089;-64
2022/02/02 08:56:53;;;;;;;6.05;3.60;;;;;;;;;;6216503;28;20498;-65
2022/02/02 08:59:58;;;;;;;4.93;3.10;;;;;;;;;;6215432;28;20137;-64
2022/02/02 09:06:16;;;;;;;2.13;1.20;;;;;;;;;;6226039;28;20057;-64
2022/02/02 09:09:21;;;;;;;18.67;1.65;;;;;;;;;;6213714;28;20053;-63
2022/02/02 09:25:41;;;;;;;0.43;0.20;;;;;;;;;;6218989;28;20050;-63
2022/02/02 09:35:26;;;;;;;1.13;0.20;;;;;;;;;;6181061;28;20079;-64
2022/02/02 09:38:28;;;;;;;0.68;0.35;;;;;;;;;;6217979;28;20393;-64
2022/02/02 09:41:43;;;;;;;2.67;0.30;;;;;;;;;;6220988;28;20143;-64
2022/02/02 09:44:45;;;;;;;1.65;0.47;;;;;;;;;;6224244;28;20131;-64
2022/02/02 09:47:55;;;;;;;3.92;0.50;;;;;;;;;;6215931;28;20212;-64
2022/02/02 09:51:03;;;;;;;2.33;0.50;;;;;;;;;;6224882;28;20042;-61
2022/02/02 09:54:10;;;;;;;2.47;0.60;;;;;;;;;;6216586;28;20046;-62
2022/02/02 10:00:48;;;;;;;1.25;0.47;;;;;;;;;;6228940;28;20053;-65
2022/02/02 10:04:16;;;;;;;1.52;0.50;;;;;;;;;;6221157;28;20072;-64
2022/02/02 10:07:46;;;;;;;2.35;0.38;;;;;;;;;;6222094;28;20093;-64
2022/02/02 10:11:01;;;;;;;2.80;0.57;;;;;;;;;;6224146;28;20053;-64
2022/02/02 10:14:14;;;;;;;2.22;0.60;;;;;;;;;;6222111;28;20065;-65
2022/02/02 10:17:16;;;;;;;0.95;0.50;;;;;;;;;;6227499;28;20042;-63
2022/02/02 10:20:20;;;;;;;0.70;0.40;;;;;;;;;;6226887;28;20058;-63
2022/02/02 10:23:26;;;;;;;0.93;0.40;;;;;;;;;;6226741;28;20121;-63
2022/02/02 10:26:27;;;;;;;1.45;0.60;;;;;;;;;;6228343;28;20625;-63
2022/02/02 10:29:37;;;;;;;1.15;0.35;;;;;;;;;;6224934;28;20167;-63
2022/02/02 10:32:40;;;;;;;1.55;0.40;;;;;;;;;;6224405;28;20124;-63
2022/02/02 10:35:43;;;;;;;2.08;0.70;;;;;;;;;;6222391;28;20566;-65
2022/02/02 10:39:00;;;;;;;0.43;0.20;;;;;;;;;;6227239;28;20510;-63
2022/02/02 10:42:02;;;;;;;4.00;0.70;;;;;;;;;;6223454;28;20050;-63
2022/02/02 10:45:19;;;;;;;2.38;0.68;;;;;;;;;;6227578;28;20562;-64
2022/02/02 10:48:31;;;;;;;3.25;0.43;;;;;;;;;;6225658;28;20502;-64
2022/02/02 10:51:40;;;;;;;0.77;0.40;;;;;;;;;;6223299;28;20441;-63
2022/02/02 10:55:02;;;;;;;2.80;0.70;;;;;;;;;;6219886;28;20042;-62
2022/02/02 10:58:24;;;;;;;0.50;0.22;;;;;;;;;;6228037;28;20509;-64
2022/02/02 11:01:36;;;;;;;2.23;0.40;;;;;;;;;;6227593;28;20103;-65
2022/02/02 11:07:59;;;;;;;3.00;0.40;;;;;;;;;;6223737;28;20124;-66
2022/02/02 11:11:00;;;;;;;2.08;0.20;;;;;;;;;;6222742;28;20478;-66
2022/02/02 11:14:05;;;;;;;3.67;0.70;;;;;;;;;;6223865;28;20073;-67
2022/02/02 11:17:15;;;;;;;2.85;0.35;;;;;;;;;;6222638;28;20132;-66
2022/02/02 11:20:17;;;;;;;3.60;0.43;;;;;;;;;;6224690;28;20502;-65
2022/02/02 11:23:20;;;;;;;95.20;58.45;;;;;;;;;;6223486;28;20136;-64
2022/02/02 11:26:39;;;;;;;3.95;2.03;;;;;;;;;;6224187;28;20506;-66
2022/02/02 11:29:43;;;;;;;7.88;4.05;;;;;;;;;;6222774;28;20049;-66
2022/02/02 11:32:47;;;;;;;10.05;5.57;;;;;;;;;;6223374;28;20068;-66
2022/02/02 11:35:51;;;;;;;3.97;1.98;;;;;;;;;;6218851;28;20049;-66
2022/02/02 11:38:55;;;;;;;4.32;0.40;;;;;;;;;;6217407;28;20311;-66
2022/02/02 11:42:01;;;;;;;1.58;0.50;;;;;;;;;;6218691;28;20536;-66
2022/02/02 11:45:15;;;;;;;6.22;0.52;;;;;;;;;;6221178;28;20041;-66
2022/02/02 11:49:02;;;;;;;0.43;0.20;;;;;;;;;;6218007;28;20050;-66
2022/02/02 11:52:04;;;;;;;3.28;0.50;;;;;;;;;;6218813;28;20082;-66
2022/02/02 11:55:08;;;;;;;0.95;0.30;;;;;;;;;;6216060;28;20191;-67
2022/02/02 11:58:15;;;;;;;2.45;0.40;;;;;;;;;;6217321;28;20077;-66
2022/02/02 12:01:37;;;;;;;6.18;0.50;;;;;;;;;;6219887;28;20052;-66
2022/02/02 12:05:00;;;;;;;2.80;0.40;;;;;;;;;;6218547;28;20042;-66
2022/02/02 12:08:11;;;;;;;1.65;0.40;;;;;;;;;;6215514;28;20061;-66
2022/02/02 12:49:02;;;;;;;8.68;0.50;;;;;;;;;;6183553;28;20127;-63
2022/02/02 12:58:49;;;;;;;3.70;0.35;;;;;;;;;;6226078;28;20128;-62
2022/02/02 13:02:02;;;;;;;;;;;;;;;;;;6226678;28;20050;-63
2022/02/02 13:05:04;;;;;;;2.03;0.30;;;;;;;;;;6214816;28;20381;-63
2022/02/02 13:08:07;;;;;;;6.05;0.47;;;;;;;;;;6219758;28;20060;-63
2022/02/02 13:11:10;;;;;;;2.05;0.30;;;;;;;;;;6224157;28;20092;-63
2022/02/02 13:14:20;;;;;;;3.33;0.40;;;;;;;;;;6219710;28;20113;-64
2022/02/02 13:17:22;;;;;;;6.78;0.60;;;;;;;;;;6216576;28;20465;-64
2022/02/02 13:20:40;;;;;;;10.27;0.75;;;;;;;;;;6218314;28;20354;-64
2022/02/02 13:23:52;;;;;;;7.32;0.60;;;;;;;;;;6215116;28;20084;-64
2022/02/02 13:27:04;;;;;;;4.72;0.40;;;;;;;;;;6221571;28;20056;-64
2022/02/02 13:30:31;;;;;;;2.33;0.40;;;;;;;;;;6217389;28;20054;-65
2022/02/02 13:33:37;;;;;;;3.10;0.40;;;;;;;;;;6231190;28;20096;-65
2022/02/02 13:36:53;;;;;;;0.52;0.30;;;;;;;;;;6213081;28;20414;-66
2022/02/02 13:43:54;;;;;;;4.43;0.73;;;;;;;;;;6215131;28;20286;-65
2022/02/02 13:47:35;;;;;;;0.43;0.25;;;;;;;;;;6218525;28;20057;-65
2022/02/02 13:51:02;;;;;;;1.65;0.32;;;;;;;;;;6222474;28;20397;-65
2022/02/02 13:54:29;;;;;;;2.80;0.57;;;;;;;;;;6222422;28;20057;-64
2022/02/02 13:57:59;;;;;;;7.95;0.50;;;;;;;;;;6228736;28;20172;-63
2022/02/02 14:01:10;;;;;;;4.43;0.70;;;;;;;;;;6219332;28;20136;-65
2022/02/02 14:04:21;;;;;;;17.13;1.55;;;;;;;;;;6230463;28;20727;-65
2022/02/02 14:07:29;;;;;;;3.22;0.30;;;;;;;;;;6220041;28;20054;-64
2022/02/02 14:10:52;;;;;;;3.88;0.65;;;;;;;;;;6225689;28;20041;-65
2022/02/02 14:33:53;;;;;;;4.43;0.40;;;;;;;;;;6229906;28;20129;-64
2022/02/02 14:36:55;;;;;;;2.75;0.32;;;;;;;;;;6225274;28;20133;-65
2022/02/02 14:40:09;;;;;;;2.83;0.35;;;;;;;;;;6225364;28;20128;-65
2022/02/02 14:43:14;;;;;;;6.65;0.98;;;;;;;;;;6226674;28;20516;-65
2022/02/02 14:46:19;;;;;;;1.83;0.50;;;;;;;;;;6221143;28;20050;-65
2022/02/02 14:49:27;;;;;;;1.58;0.30;;;;;;;;;;6233433;28;20454;-65
2022/02/02 14:52:36;;;;;;;3.90;0.40;;;;;;;;;;6228832;28;20112;-64
2022/02/02 14:56:08;;;;;;;1.45;0.30;;;;;;;;;;6224493;28;20053;-65
2022/02/02 15:06:37;;;;;;;0.20;0.17;;;;;;;;;;6223622;28;20053;-65
2022/02/02 15:10:10;;;;;;;1.45;0.40;;;;;;;;;;6220940;28;20046;-64
2022/02/02 15:23:46;;;;;;;5.95;0.70;;;;;;;;;;6223497;28;20478;-63
2022/02/02 15:24:05;;;;;;;4.07;0.50;;;;;;;;;;6224257;28;20449;-62
2022/02/02 15:27:22;;;;;;;1.25;0.40;;;;;;;;;;6222292;28;20085;-62
2022/02/02 15:30:29;;;;;;;2.53;0.40;;;;;;;;;;6221147;28;20476;-62
2022/02/02 15:33:32;;;;;;;2.17;0.50;;;;;;;;;;6218860;28;20052;-64
2022/02/02 15:37:11;;;;;;;6.30;0.60;;;;;;;;;;6218967;28;20060;-64
2022/02/02 15:40:14;;;;;;;6.32;0.68;;;;;;;;;;6223810;28;20049;-64
2022/02/02 16:03:43;;;;;;;7.60;1.23;;;;;;;;;;6220208;28;20046;-63
2022/02/02 16:06:45;;;;;;;0.82;0.47;;;;;;;;;;6219048;28;20061;-63
2022/02/02 16:09:51;;;;;;;8.57;0.80;;;;;;;;;;6215925;28;20054;-63
2022/02/02 16:12:54;;;;;;;5.95;0.52;;;;;;;;;;6217469;28;20115;-63
2022/02/02 16:15:57;;;;;;;3.93;0.70;;;;;;;;;;6218445;28;20061;-62
2022/02/02 16:19:02;;;;;;;4.13;0.70;;;;;;;;;;6217023;28;20451;-62
2022/02/02 16:31:28;;;;;;;3.08;0.70;;;;;;;;;;6219051;28;20057;-63
2022/02/02 16:35:58;;;;;;;2.63;0.60;;;;;;;;;;6165912;28;20078;-63
2022/02/02 16:39:06;;;;;;;7.35;1.00;;;;;;;;;;6215751;28;20479;-63
2022/02/02 16:45:30;;;;;;;5.53;0.75;;;;;;;;;;6214966;28;20046;-64
2022/02/02 16:48:32;;;;;;;2.72;0.70;;;;;;;;;;6210104;28;20045;-63
2022/02/02 16:51:33;;;;;;;2.35;0.80;;;;;;;;;;6213633;28;20144;-62
2022/02/02 16:54:40;;;;;;;3.28;0.70;;;;;;;;;;6217647;28;20177;-63
2022/02/02 16:57:51;;;;;;;5.45;0.93;;;;;;;;;;6216534;28;20175;-64
2022/02/02 17:25:04;;;;;;;7.03;1.23;;;;;;;;;;6213481;28;20454;-62
2022/02/02 17:31:27;;;;;;;2.35;0.90;;;;;;;;;;6172221;28;20132;-62
2022/02/02 17:34:37;;;;;;;2.22;0.70;;;;;;;;;;6220106;28;20049;-65
2022/02/02 17:37:46;;;;;;;2.95;1.25;;;;;;;;;;6227278;28;20409;-65
2022/02/02 17:41:05;;;;;;;1.77;1.30;;;;;;;;;;6214378;28;20057;-63
2022/02/02 17:44:20;;;;;;;3.00;1.00;;;;;;;;;;6216031;28;20046;-63
2022/02/02 18:20:46;;;;;;;6.38;1.70;;;;;;;;;;6233559;28;20121;-64
2022/02/02 18:23:55;;;;;;;6.25;1.67;;;;;;;;;;6214918;28;20117;-65
2022/02/02 18:27:02;;;;;;;5.15;1.70;;;;;;;;;;6220733;28;20125;-64
2022/02/02 18:30:17;;;;;;;5.50;1.85;;;;;;;;;;6216446;28;20053;-64
2022/02/02 18:33:29;;;;;;;5.28;1.63;;;;;;;;;;6223842;28;20057;-64
2022/02/02 18:36:39;;;;;;;4.18;1.45;;;;;;;;;;6217411;28;20402;-62
2022/02/02 18:46:36;;;;;;;6.45;1.20;;;;;;;;;;6227072;28;20053;-64
2022/02/02 18:49:54;;;;;;;;;;;;;;;;;;6212607;28;20049;-64
2022/02/02 18:53:38;;;;;;;3.80;1.20;;;;;;;;;;6232944;28;20273;-64
2022/02/02 19:00:06;;;;;;;2.15;0.95;;;;;;;;;;6231600;28;20053;-65
2022/02/02 19:03:34;;;;;;;3.22;1.40;;;;;;;;;;6222041;28;20060;-61
2022/02/02 19:07:07;;;;;;;2.97;1.45;;;;;;;;;;6226111;28;20172;-61
2022/02/02 19:40:18;;;;;;;2.42;1.10;;;;;;;;;;6223836;28;20058;-60
2022/02/02 19:56:45;;;;;;;1.67;1.08;;;;;;;;;;6220404;28;20054;-62
2022/02/02 20:06:38;;;;;;;3.45;1.40;;;;;;;;;;6220606;28;20049;-62
2022/02/02 20:09:55;;;;;;;1.98;1.20;;;;;;;;;;6224802;28;20402;-61
2022/02/02 20:12:56;;;;;;;1.63;1.00;;;;;;;;;;6224649;28;20493;-62
2022/02/02 20:15:58;;;;;;;1.90;1.00;;;;;;;;;;6222956;28;20526;-61
2022/02/02 20:19:05;;;;;;;5.57;1.38;;;;;;;;;;6224010;28;20046;-62
2022/02/02 20:22:06;;;;;;;4.10;2.13;;;;;;;;;;6220928;28;20494;-61
2022/02/02 20:25:10;;;;;;;4.75;1.52;;;;;;;;;;6220037;28;20437;-62
2022/02/02 20:28:11;;;;;;;4.43;1.38;;;;;;;;;;6220998;28;20254;-61
2022/02/02 20:31:13;;;;;;;3.63;1.70;;;;;;;;;;6217408;28;20506;-61
2022/02/02 20:34:16;;;;;;;4.10;1.52;;;;;;;;;;6216537;28;20124;-61
2022/02/02 20:37:19;;;;;;;2.65;1.52;;;;;;;;;;6220030;28;20054;-61
2022/02/02 20:40:21;;;;;;;2.80;1.33;;;;;;;;;;6219247;28;20134;-61
2022/02/02 20:43:30;;;;;;;2.92;1.20;;;;;;;;;;6222929;28;20050;-61
2022/02/02 20:47:00;;;;;;;3.75;2.08;;;;;;;;;;6220682;28;20052;-62
2022/02/02 21:03:37;;;;;;;4.22;2.20;;;;;;;;;;6185359;28;20111;-61
2022/02/02 21:06:47;;;;;;;3.05;2.00;;;;;;;;;;6217676;28;20054;-64
2022/02/02 21:09:55;;;;;;;8.02;2.38;;;;;;;;;;6216194;28;20042;-61
2022/02/02 21:16:18;;;;;;;4.85;2.72;;;;;;;;;;6216069;28;20054;-61
2022/02/02 21:19:30;;;;;;;3.70;2.38;;;;;;;;;;6216771;28;20077;-61
2022/02/02 21:22:36;;;;;;;3.72;2.45;;;;;;;;;;6213920;28;20046;-61
2022/02/02 21:25:44;;;;;;;3.40;2.13;;;;;;;;;;6213561;28;20082;-62
2022/02/02 21:28:46;;;;;;;4.38;2.35;;;;;;;;;;6213812;28;20042;-61
2022/02/02 21:31:47;;;;;;;4.43;2.35;;;;;;;;;;6215366;28;20140;-61
2022/02/02 21:34:51;;;;;;;4.28;2.63;;;;;;;;;;6211851;28;20176;-61
2022/02/02 21:38:01;;;;;;;;;;;;;;;;;;6214020;28;20046;-62
2022/02/02 21:41:03;;;;;;;2.97;2.20;;;;;;;;;;6214778;28;19921;-61
2022/02/02 21:44:06;;;;;;;3.78;2.20;;;;;;;;;;6214831;28;20066;-62
2022/02/02 21:47:11;;;;;;;3.92;2.63;;;;;;;;;;6216774;28;20136;-61
2022/02/02 21:50:16;;;;;;;4.28;2.38;;;;;;;;;;6214895;28;20053;-61
2022/02/02 21:53:19;;;;;;;4.00;2.40;;;;;;;;;;6240734;28;20700;-62
2022/02/02 21:56:20;;;;;;;4.38;2.50;;;;;;;;;;6214633;28;20128;-61
2022/02/02 21:59:22;;;;;;;3.85;2.80;;;;;;;;;;6213793;28;20089;-61
2022/02/02 22:02:24;;;;;;;5.45;2.92;;;;;;;;;;6216028;28;20290;-62
2022/02/02 22:05:25;;;;;;;5.82;2.97;;;;;;;;;;6218450;28;20151;-62
2022/02/02 22:08:28;;;;;;;4.57;2.55;;;;;;;;;;6216291;28;20078;-61
2022/02/02 22:11:30;;;;;;;4.25;2.90;;;;;;;;;;6219842;28;20121;-61
2022/02/02 22:14:32;;;;;;;7.05;3.17;;;;;;;;;;6232163;28;20124;-61
2022/02/02 22:17:35;;;;;;;6.07;3.30;;;;;;;;;;6237197;28;20042;-61
2022/02/02 22:20:36;;;;;;;6.28;2.97;;;;;;;;;;6227344;28;20054;-61
2022/02/02 22:23:41;;;;;;;6.22;3.15;;;;;;;;;;6227024;28;20045;-61
2022/02/02 22:26:43;;;;;;;7.50;4.40;;;;;;;;;;6227918;28;20127;-62
2022/02/02 22:29:44;;;;;;;5.57;3.45;;;;;;;;;;6220131;28;20132;-62
2022/02/02 22:32:46;;;;;;;7.18;3.45;;;;;;;;;;6230072;28;20136;-62
2022/02/02 22:35:48;;;;;;;5.60;3.25;;;;;;;;;;6224376;28;20502;-62
2022/02/02 22:38:51;;;;;;;8.50;3.25;;;;;;;;;;6224047;28;20076;-62
2022/02/02 22:41:52;;;;;;;6.38;2.92;;;;;;;;;;6229238;28;20077;-61
2022/02/02 22:44:57;;;;;;;4.65;3.17;;;;;;;;;;6221351;28;20054;-61
2022/02/02 22:47:58;;;;;;;4.90;3.17;;;;;;;;;;6220078;28;20050;-62
2022/02/02 22:51:00;;;;;;;4.75;2.75;;;;;;;;;;6217831;28;20122;-62
2022/02/02 22:54:04;;;;;;;4.68;2.88;;;;;;;;;;6228867;28;20080;-61
2022/02/02 22:57:06;;;;;;;4.38;2.70;;;;;;;;;;6226729;28;20058;-62
2022/02/02 23:00:15;;;;;;;8.70;2.85;;;;;;;;;;6225474;28;20189;-62
2022/02/02 23:03:20;;;;;;;4.85;2.65;;;;;;;;;;6221869;28;20050;-61
2022/02/02 23:06:22;;;;;;;4.93;2.97;;;;;;;;;;6226104;28;20053;-61
2022/02/02 23:09:24;;;;;;;7.00;3.42;;;;;;;;;;6219166;28;20096;-62
2022/02/02 23:12:28;;;;;;;8.77;3.30;;;;;;;;;;6234112;28;20088;-62
2022/02/02 23:15:36;;;;;;;5.13;2.90;;;;;;;;;;6224176;28;20045;-62
2022/02/02 23:18:39;;;;;;;5.93;2.80;;;;;;;;;;6224591;28;20509;-62
2022/02/02 23:21:44;;;;;;;6.20;3.42;;;;;;;;;;6220979;28;20050;-62
2022/02/02 23:24:50;;;;;;;13.18;3.00;;;;;;;;;;6227486;28;20094;-61
2022/02/02 23:27:52;;;;;;;7.93;2.80;;;;;;;;;;6219934;28;20525;-62
2022/02/02 23:30:54;;;;;;;8.68;2.90;;;;;;;;;;6227180;28;20073;-62
2022/02/02 23:33:56;;;;;;;4.57;2.53;;;;;;;;;;6226649;28;20049;-62
2022/02/02 23:36:57;;;;;;;4.65;2.70;;;;;;;;;;6229042;28;20050;-62
2022/02/02 23:40:03;;;;;;;4.60;2.70;;;;;;;;;;6223563;28;20081;-61
2022/02/02 23:43:04;;;;;;;7.95;3.15;;;;;;;;;;6222856;28;20054;-61
2022/02/02 23:46:09;;;;;;;9.23;2.72;;;;;;;;;;6225496;28;20133;-62
2022/02/02 23:49:17;;;;;;;4.90;2.35;;;;;;;;;;6220478;28;20068;-62
2022/02/02 23:52:26;;;;;;;31.17;17.75;;;;;;;;;;6220682;28;20482;-62
2022/02/02 23:55:33;;;;;;;44.28;21.52;;;;;;;;;;6225468;28;20054;-63
2022/02/02 23:58:42;;;;;;;36.05;18.52;;;;;;;;;;6224959;28;20054;-63
